sensor_id;sensor_type;location;lat;lon;timestamp;P1;durP1;ratioP1;P2;durP2;ratioP2
39434;SDS011;66825;51.880;-0.518;2024-03-08T00:00:14;5.60;;;4.80;;
39434;SDS011;66825;51.880;-0.518;2024-03-08T00:02:46;5.50;;;5.00;;
39434;SDS011;66825;51.880;-0.518;2024-03-08T00:05:13;5.70;;;5.13;;
39434;SDS011;66825;51.880;-0.518;2024-03-08T00:07:39;5.43;;;4.93;;
39434;SDS011;66825;51.880;-0.518;2024-03-08T00:10:06;5.60;;;5.10;;
39434;SDS011;66825;51.880;-0.518;2024-03-08T00:12:36;5.95;;;5.45;;
39434;SDS011;66825;51.880;-0.518;2024-03-08T00:17:33;5.97;;;5.38;;
39434;SDS011;66825;51.880;-0.518;2024-03-08T00:19:58;5.80;;;5.25;;
39434;SDS011;66825;51.880;-0.518;2024-03-08T00:22:24;5.72;;;5.20;;
39434;SDS011;66825;51.880;-0.518;2024-03-08T00:24:49;5.43;;;4.90;;
39434;SDS011;66825;51.880;-0.518;2024-03-08T00:27:16;5.95;;;5.35;;
39434;SDS011;66825;51.880;-0.518;2024-03-08T00:29:41;5.70;;;5.10;;
39434;SDS011;66825;51.880;-0.518;2024-03-08T00:32:07;5.35;;;4.85;;
39434;SDS011;66825;51.880;-0.518;2024-03-08T00:34:36;5.53;;;5.00;;
39434;SDS011;66825;51.880;-0.518;2024-03-08T00:37:04;5.80;;;5.30;;
39434;SDS011;66825;51.880;-0.518;2024-03-08T00:39:30;5.70;;;5.00;;
39434;SDS011;66825;51.880;-0.518;2024-03-08T00:41:55;6.07;;;5.47;;
39434;SDS011;66825;51.880;-0.518;2024-03-08T00:44:21;5.97;;;5.15;;
39434;SDS011;66825;51.880;-0.518;2024-03-08T00:46:46;6.38;;;5.40;;
39434;SDS011;66825;51.880;-0.518;2024-03-08T00:49:12;5.60;;;5.10;;
39434;SDS011;66825;51.880;-0.518;2024-03-08T00:51:37;5.72;;;5.20;;
39434;SDS011;66825;51.880;-0.518;2024-03-08T00:54:03;5.65;;;5.10;;
39434;SDS011;66825;51.880;-0.518;2024-03-08T00:56:28;5.90;;;5.30;;
39434;SDS011;66825;51.880;-0.518;2024-03-08T00:58:54;5.60;;;5.10;;
39434;SDS011;66825;51.880;-0.518;2024-03-08T01:01:19;6.72;;;5.60;;
39434;SDS011;66825;51.880;-0.518;2024-03-08T01:03:45;6.07;;;5.40;;
39434;SDS011;66825;51.880;-0.518;2024-03-08T01:06:11;5.70;;;5.10;;
39434;SDS011;66825;51.880;-0.518;2024-03-08T01:08:37;6.10;;;5.43;;
39434;SDS011;66825;51.880;-0.518;2024-03-08T01:11:06;5.82;;;5.22;;
39434;SDS011;66825;51.880;-0.518;2024-03-08T01:13:31;6.20;;;5.60;;
39434;SDS011;66825;51.880;-0.518;2024-03-08T01:15:57;5.35;;;4.85;;
39434;SDS011;66825;51.880;-0.518;2024-03-08T01:18:22;5.95;;;5.28;;
39434;SDS011;66825;51.880;-0.518;2024-03-08T01:20:47;5.90;;;5.30;;
39434;SDS011;66825;51.880;-0.518;2024-03-08T01:23:13;6.05;;;5.43;;
39434;SDS011;66825;51.880;-0.518;2024-03-08T01:25:39;6.15;;;5.55;;
39434;SDS011;66825;51.880;-0.518;2024-03-08T01:28:04;6.30;;;5.70;;
39434;SDS011;66825;51.880;-0.518;2024-03-08T01:30:30;5.93;;;5.28;;
39434;SDS011;66825;51.880;-0.518;2024-03-08T01:32:58;5.97;;;5.38;;
39434;SDS011;66825;51.880;-0.518;2024-03-08T01:35:23;5.95;;;5.45;;
39434;SDS011;66825;51.880;-0.518;2024-03-08T01:37:49;5.72;;;5.22;;
39434;SDS011;66825;51.880;-0.518;2024-03-08T01:40:15;5.78;;;5.22;;
39434;SDS011;66825;51.880;-0.518;2024-03-08T01:42:41;6.00;;;5.40;;
39434;SDS011;66825;51.880;-0.518;2024-03-08T01:45:07;5.85;;;5.28;;
39434;SDS011;66825;51.880;-0.518;2024-03-08T01:47:34;6.10;;;5.50;;
39434;SDS011;66825;51.880;-0.518;2024-03-08T01:50:00;6.20;;;5.50;;
39434;SDS011;66825;51.880;-0.518;2024-03-08T01:52:31;5.63;;;5.13;;
39434;SDS011;66825;51.880;-0.518;2024-03-08T01:55:01;6.47;;;5.60;;
39434;SDS011;66825;51.880;-0.518;2024-03-08T01:57:34;5.65;;;5.05;;
39434;SDS011;66825;51.880;-0.518;2024-03-08T02:00:00;6.03;;;5.43;;
39434;SDS011;66825;51.880;-0.518;2024-03-08T02:02:30;6.03;;;5.45;;
39434;SDS011;66825;51.880;-0.518;2024-03-08T02:04:57;6.50;;;5.80;;
39434;SDS011;66825;51.880;-0.518;2024-03-08T02:07:23;5.70;;;5.20;;
39434;SDS011;66825;51.880;-0.518;2024-03-08T02:09:48;6.15;;;5.55;;
39434;SDS011;66825;51.880;-0.518;2024-03-08T02:12:14;6.28;;;5.60;;
39434;SDS011;66825;51.880;-0.518;2024-03-08T02:14:39;6.50;;;5.70;;
39434;SDS011;66825;51.880;-0.518;2024-03-08T02:17:05;6.18;;;5.57;;
39434;SDS011;66825;51.880;-0.518;2024-03-08T02:19:30;6.35;;;5.70;;
39434;SDS011;66825;51.880;-0.518;2024-03-08T02:21:56;6.30;;;5.70;;
39434;SDS011;66825;51.880;-0.518;2024-03-08T02:24:22;7.05;;;5.90;;
39434;SDS011;66825;51.880;-0.518;2024-03-08T02:26:49;6.15;;;5.55;;
39434;SDS011;66825;51.880;-0.518;2024-03-08T02:29:14;6.43;;;5.72;;
39434;SDS011;66825;51.880;-0.518;2024-03-08T02:31:40;6.10;;;5.50;;
39434;SDS011;66825;51.880;-0.518;2024-03-08T02:34:05;6.28;;;5.68;;
39434;SDS011;66825;51.880;-0.518;2024-03-08T02:36:31;7.95;;;6.07;;
39434;SDS011;66825;51.880;-0.518;2024-03-08T02:39:01;6.30;;;5.70;;
39434;SDS011;66825;51.880;-0.518;2024-03-08T02:41:27;6.13;;;5.53;;
39434;SDS011;66825;51.880;-0.518;2024-03-08T02:43:53;6.60;;;6.00;;
39434;SDS011;66825;51.880;-0.518;2024-03-08T02:46:20;5.65;;;5.10;;
39434;SDS011;66825;51.880;-0.518;2024-03-08T02:48:46;5.95;;;5.35;;
39434;SDS011;66825;51.880;-0.518;2024-03-08T02:51:12;6.15;;;5.50;;
39434;SDS011;66825;51.880;-0.518;2024-03-08T02:53:38;6.63;;;6.03;;
39434;SDS011;66825;51.880;-0.518;2024-03-08T02:56:04;6.53;;;5.93;;
39434;SDS011;66825;51.880;-0.518;2024-03-08T02:58:33;6.57;;;5.88;;
39434;SDS011;66825;51.880;-0.518;2024-03-08T03:00:59;5.80;;;5.30;;
39434;SDS011;66825;51.880;-0.518;2024-03-08T03:03:24;6.20;;;5.60;;
39434;SDS011;66825;51.880;-0.518;2024-03-08T03:05:52;6.22;;;5.63;;
39434;SDS011;66825;51.880;-0.518;2024-03-08T03:08:21;6.38;;;5.75;;
39434;SDS011;66825;51.880;-0.518;2024-03-08T03:10:46;6.47;;;5.88;;
39434;SDS011;66825;51.880;-0.518;2024-03-08T03:13:12;6.35;;;5.75;;
39434;SDS011;66825;51.880;-0.518;2024-03-08T03:15:39;6.25;;;5.65;;
39434;SDS011;66825;51.880;-0.518;2024-03-08T03:18:07;6.38;;;5.47;;
39434;SDS011;66825;51.880;-0.518;2024-03-08T03:20:33;6.30;;;5.70;;
39434;SDS011;66825;51.880;-0.518;2024-03-08T03:23:02;6.63;;;5.70;;
39434;SDS011;66825;51.880;-0.518;2024-03-08T03:25:28;6.35;;;5.75;;
39434;SDS011;66825;51.880;-0.518;2024-03-08T03:27:58;6.43;;;5.82;;
39434;SDS011;66825;51.880;-0.518;2024-03-08T03:30:25;6.00;;;5.50;;
39434;SDS011;66825;51.880;-0.518;2024-03-08T03:32:52;6.72;;;5.72;;
39434;SDS011;66825;51.880;-0.518;2024-03-08T03:35:20;6.40;;;5.80;;
39434;SDS011;66825;51.880;-0.518;2024-03-08T03:37:46;6.63;;;5.93;;
39434;SDS011;66825;51.880;-0.518;2024-03-08T03:40:41;6.78;;;6.07;;
39434;SDS011;66825;51.880;-0.518;2024-03-08T03:43:07;6.18;;;5.57;;
39434;SDS011;66825;51.880;-0.518;2024-03-08T03:45:32;6.50;;;5.82;;
39434;SDS011;66825;51.880;-0.518;2024-03-08T03:48:01;6.38;;;5.78;;
39434;SDS011;66825;51.880;-0.518;2024-03-08T03:50:36;6.05;;;5.40;;
39434;SDS011;66825;51.880;-0.518;2024-03-08T03:53:01;6.65;;;6.00;;
39434;SDS011;66825;51.880;-0.518;2024-03-08T03:55:27;6.65;;;5.95;;
39434;SDS011;66825;51.880;-0.518;2024-03-08T03:57:53;6.32;;;5.70;;
39434;SDS011;66825;51.880;-0.518;2024-03-08T04:00:19;6.45;;;5.78;;
39434;SDS011;66825;51.880;-0.518;2024-03-08T04:02:45;6.03;;;5.53;;
39434;SDS011;66825;51.880;-0.518;2024-03-08T04:05:12;5.93;;;5.35;;
39434;SDS011;66825;51.880;-0.518;2024-03-08T04:07:38;6.82;;;5.93;;
39434;SDS011;66825;51.880;-0.518;2024-03-08T04:10:04;6.30;;;5.70;;
39434;SDS011;66825;51.880;-0.518;2024-03-08T04:12:32;6.43;;;5.82;;
39434;SDS011;66825;51.880;-0.518;2024-03-08T04:14:58;6.50;;;5.82;;
39434;SDS011;66825;51.880;-0.518;2024-03-08T04:17:24;7.00;;;5.38;;
39434;SDS011;66825;51.880;-0.518;2024-03-08T04:19:50;7.07;;;6.38;;
39434;SDS011;66825;51.880;-0.518;2024-03-08T04:22:15;6.18;;;5.57;;
39434;SDS011;66825;51.880;-0.518;2024-03-08T04:24:43;6.65;;;5.95;;
39434;SDS011;66825;51.880;-0.518;2024-03-08T04:27:09;7.38;;;6.40;;
39434;SDS011;66825;51.880;-0.518;2024-03-08T04:29:34;5.95;;;5.45;;
39434;SDS011;66825;51.880;-0.518;2024-03-08T04:32:01;6.20;;;5.60;;
39434;SDS011;66825;51.880;-0.518;2024-03-08T04:34:31;6.82;;;5.97;;
39434;SDS011;66825;51.880;-0.518;2024-03-08T04:37:02;6.50;;;5.90;;
39434;SDS011;66825;51.880;-0.518;2024-03-08T04:39:29;6.45;;;5.75;;
39434;SDS011;66825;51.880;-0.518;2024-03-08T04:41:57;6.53;;;5.93;;
39434;SDS011;66825;51.880;-0.518;2024-03-08T04:44:24;6.90;;;6.20;;
39434;SDS011;66825;51.880;-0.518;2024-03-08T04:46:50;8.00;;;6.43;;
39434;SDS011;66825;51.880;-0.518;2024-03-08T04:49:15;6.80;;;6.07;;
39434;SDS011;66825;51.880;-0.518;2024-03-08T04:51:41;7.35;;;6.00;;
39434;SDS011;66825;51.880;-0.518;2024-03-08T04:54:06;6.75;;;6.15;;
39434;SDS011;66825;51.880;-0.518;2024-03-08T04:56:32;6.53;;;5.85;;
39434;SDS011;66825;51.880;-0.518;2024-03-08T04:58:58;6.40;;;5.80;;
39434;SDS011;66825;51.880;-0.518;2024-03-08T05:01:23;6.18;;;5.57;;
39434;SDS011;66825;51.880;-0.518;2024-03-08T05:03:49;6.43;;;5.82;;
39434;SDS011;66825;51.880;-0.518;2024-03-08T05:06:18;6.80;;;5.85;;
39434;SDS011;66825;51.880;-0.518;2024-03-08T05:08:45;6.50;;;5.88;;
39434;SDS011;66825;51.880;-0.518;2024-03-08T05:11:11;7.22;;;6.15;;
39434;SDS011;66825;51.880;-0.518;2024-03-08T05:13:40;7.25;;;5.72;;
39434;SDS011;66825;51.880;-0.518;2024-03-08T05:16:06;6.15;;;5.55;;
39434;SDS011;66825;51.880;-0.518;2024-03-08T05:18:35;6.93;;;6.32;;
39434;SDS011;66825;51.880;-0.518;2024-03-08T05:21:01;6.82;;;6.07;;
39434;SDS011;66825;51.880;-0.518;2024-03-08T05:23:29;6.32;;;5.72;;
39434;SDS011;66825;51.880;-0.518;2024-03-08T05:25:55;6.70;;;6.10;;
39434;SDS011;66825;51.880;-0.518;2024-03-08T05:28:20;7.70;;;5.97;;
39434;SDS011;66825;51.880;-0.518;2024-03-08T05:30:46;6.80;;;5.68;;
39434;SDS011;66825;51.880;-0.518;2024-03-08T05:33:11;7.18;;;6.32;;
39434;SDS011;66825;51.880;-0.518;2024-03-08T05:35:39;6.53;;;5.80;;
39434;SDS011;66825;51.880;-0.518;2024-03-08T05:38:05;6.55;;;5.82;;
39434;SDS011;66825;51.880;-0.518;2024-03-08T05:40:32;6.45;;;5.85;;
39434;SDS011;66825;51.880;-0.518;2024-03-08T05:42:58;7.18;;;6.47;;
39434;SDS011;66825;51.880;-0.518;2024-03-08T05:45:24;6.82;;;5.95;;
39434;SDS011;66825;51.880;-0.518;2024-03-08T05:47:50;6.50;;;5.80;;
39434;SDS011;66825;51.880;-0.518;2024-03-08T05:50:17;7.05;;;6.30;;
39434;SDS011;66825;51.880;-0.518;2024-03-08T05:52:43;6.85;;;6.07;;
39434;SDS011;66825;51.880;-0.518;2024-03-08T05:55:08;6.80;;;6.00;;
39434;SDS011;66825;51.880;-0.518;2024-03-08T05:57:35;7.13;;;6.18;;
39434;SDS011;66825;51.880;-0.518;2024-03-08T06:00:03;7.13;;;6.40;;
39434;SDS011;66825;51.880;-0.518;2024-03-08T06:02:29;7.10;;;6.22;;
39434;SDS011;66825;51.880;-0.518;2024-03-08T06:04:54;7.72;;;6.57;;
39434;SDS011;66825;51.880;-0.518;2024-03-08T06:07:20;7.07;;;6.20;;
39434;SDS011;66825;51.880;-0.518;2024-03-08T06:09:46;6.97;;;6.10;;
39434;SDS011;66825;51.880;-0.518;2024-03-08T06:12:11;6.97;;;6.13;;
39434;SDS011;66825;51.880;-0.518;2024-03-08T06:14:37;7.00;;;6.30;;
39434;SDS011;66825;51.880;-0.518;2024-03-08T06:17:03;7.85;;;6.13;;
39434;SDS011;66825;51.880;-0.518;2024-03-08T06:19:32;6.78;;;6.07;;
39434;SDS011;66825;51.880;-0.518;2024-03-08T06:21:58;7.78;;;6.13;;
39434;SDS011;66825;51.880;-0.518;2024-03-08T06:24:23;7.00;;;6.30;;
39434;SDS011;66825;51.880;-0.518;2024-03-08T06:26:48;6.85;;;6.15;;
39434;SDS011;66825;51.880;-0.518;2024-03-08T06:29:14;7.43;;;6.22;;
39434;SDS011;66825;51.880;-0.518;2024-03-08T06:31:40;7.57;;;6.30;;
39434;SDS011;66825;51.880;-0.518;2024-03-08T06:34:06;6.68;;;6.05;;
39434;SDS011;66825;51.880;-0.518;2024-03-08T06:36:33;7.22;;;6.53;;
39434;SDS011;66825;51.880;-0.518;2024-03-08T06:38:58;8.50;;;6.40;;
39434;SDS011;66825;51.880;-0.518;2024-03-08T06:41:24;7.10;;;6.30;;
39434;SDS011;66825;51.880;-0.518;2024-03-08T06:43:50;8.00;;;7.00;;
39434;SDS011;66825;51.880;-0.518;2024-03-08T06:46:17;7.25;;;6.55;;
39434;SDS011;66825;51.880;-0.518;2024-03-08T06:48:43;8.40;;;6.72;;
39434;SDS011;66825;51.880;-0.518;2024-03-08T06:51:08;7.40;;;6.70;;
39434;SDS011;66825;51.880;-0.518;2024-03-08T06:53:36;7.18;;;6.47;;
39434;SDS011;66825;51.880;-0.518;2024-03-08T06:56:01;7.53;;;6.30;;
39434;SDS011;66825;51.880;-0.518;2024-03-08T06:58:27;7.10;;;6.22;;
39434;SDS011;66825;51.880;-0.518;2024-03-08T07:00:53;6.15;;;5.20;;
39434;SDS011;66825;51.880;-0.518;2024-03-08T07:03:19;6.72;;;5.90;;
39434;SDS011;66825;51.880;-0.518;2024-03-08T07:05:44;6.40;;;5.72;;
39434;SDS011;66825;51.880;-0.518;2024-03-08T07:08:10;6.35;;;5.63;;
39434;SDS011;66825;51.880;-0.518;2024-03-08T07:10:37;7.50;;;5.90;;
39434;SDS011;66825;51.880;-0.518;2024-03-08T07:13:04;6.60;;;5.30;;
39434;SDS011;66825;51.880;-0.518;2024-03-08T07:15:29;5.93;;;5.32;;
39434;SDS011;66825;51.880;-0.518;2024-03-08T07:17:55;6.20;;;5.57;;
39434;SDS011;66825;51.880;-0.518;2024-03-08T07:20:21;6.38;;;5.22;;
39434;SDS011;66825;51.880;-0.518;2024-03-08T07:22:46;6.53;;;5.68;;
39434;SDS011;66825;51.880;-0.518;2024-03-08T07:25:13;7.63;;;5.95;;
39434;SDS011;66825;51.880;-0.518;2024-03-08T07:27:55;7.00;;;5.88;;
39434;SDS011;66825;51.880;-0.518;2024-03-08T07:30:21;6.60;;;5.90;;
39434;SDS011;66825;51.880;-0.518;2024-03-08T07:33:09;6.07;;;5.47;;
39434;SDS011;66825;51.880;-0.518;2024-03-08T07:35:38;7.22;;;5.45;;
39434;SDS011;66825;51.880;-0.518;2024-03-08T07:38:05;6.50;;;5.65;;
39434;SDS011;66825;51.880;-0.518;2024-03-08T07:40:33;6.72;;;5.82;;
39434;SDS011;66825;51.880;-0.518;2024-03-08T07:43:13;6.05;;;5.40;;
39434;SDS011;66825;51.880;-0.518;2024-03-08T07:45:39;7.32;;;5.93;;
39434;SDS011;66825;51.880;-0.518;2024-03-08T07:48:04;6.60;;;5.65;;
39434;SDS011;66825;51.880;-0.518;2024-03-08T07:50:37;7.88;;;6.13;;
39434;SDS011;66825;51.880;-0.518;2024-03-08T07:53:04;6.00;;;5.38;;
39434;SDS011;66825;51.880;-0.518;2024-03-08T07:55:31;6.43;;;5.50;;
39434;SDS011;66825;51.880;-0.518;2024-03-08T07:57:58;6.32;;;5.72;;
39434;SDS011;66825;51.880;-0.518;2024-03-08T08:00:23;6.20;;;5.60;;
39434;SDS011;66825;51.880;-0.518;2024-03-08T08:02:49;6.95;;;6.00;;
39434;SDS011;66825;51.880;-0.518;2024-03-08T08:05:15;6.80;;;5.70;;
39434;SDS011;66825;51.880;-0.518;2024-03-08T08:07:44;7.25;;;5.93;;
39434;SDS011;66825;51.880;-0.518;2024-03-08T08:10:11;7.53;;;6.03;;
39434;SDS011;66825;51.880;-0.518;2024-03-08T08:12:49;7.35;;;5.80;;
39434;SDS011;66825;51.880;-0.518;2024-03-08T08:15:16;6.57;;;5.70;;
39434;SDS011;66825;51.880;-0.518;2024-03-08T08:17:43;6.93;;;5.82;;
39434;SDS011;66825;51.880;-0.518;2024-03-08T08:20:12;6.72;;;6.03;;
39434;SDS011;66825;51.880;-0.518;2024-03-08T08:22:41;6.88;;;5.82;;
39434;SDS011;66825;51.880;-0.518;2024-03-08T08:25:08;7.07;;;5.97;;
39434;SDS011;66825;51.880;-0.518;2024-03-08T08:27:34;7.32;;;5.95;;
39434;SDS011;66825;51.880;-0.518;2024-03-08T08:30:02;7.45;;;6.45;;
39434;SDS011;66825;51.880;-0.518;2024-03-08T08:32:35;7.53;;;6.18;;
39434;SDS011;66825;51.880;-0.518;2024-03-08T08:35:02;5.40;;;4.82;;
39434;SDS011;66825;51.880;-0.518;2024-03-08T08:37:29;6.13;;;5.15;;
39434;SDS011;66825;51.880;-0.518;2024-03-08T08:39:56;5.93;;;5.32;;
39434;SDS011;66825;51.880;-0.518;2024-03-08T08:42:22;6.20;;;5.15;;
39434;SDS011;66825;51.880;-0.518;2024-03-08T08:44:48;5.75;;;5.10;;
39434;SDS011;66825;51.880;-0.518;2024-03-08T08:47:16;6.35;;;5.40;;
39434;SDS011;66825;51.880;-0.518;2024-03-08T08:49:44;7.03;;;6.03;;
39434;SDS011;66825;51.880;-0.518;2024-03-08T08:52:11;6.57;;;5.15;;
39434;SDS011;66825;51.880;-0.518;2024-03-08T08:54:37;6.72;;;5.50;;
39434;SDS011;66825;51.880;-0.518;2024-03-08T08:57:03;7.32;;;5.45;;
39434;SDS011;66825;51.880;-0.518;2024-03-08T08:59:33;6.47;;;5.75;;
39434;SDS011;66825;51.880;-0.518;2024-03-08T09:02:01;6.45;;;5.43;;
39434;SDS011;66825;51.880;-0.518;2024-03-08T09:04:29;6.10;;;5.30;;
39434;SDS011;66825;51.880;-0.518;2024-03-08T09:06:56;7.22;;;5.80;;
39434;SDS011;66825;51.880;-0.518;2024-03-08T09:09:22;6.97;;;5.95;;
39434;SDS011;66825;51.880;-0.518;2024-03-08T09:11:48;6.35;;;5.72;;
39434;SDS011;66825;51.880;-0.518;2024-03-08T09:14:14;7.45;;;5.32;;
39434;SDS011;66825;51.880;-0.518;2024-03-08T09:16:40;7.00;;;5.95;;
39434;SDS011;66825;51.880;-0.518;2024-03-08T09:19:06;8.32;;;5.97;;
39434;SDS011;66825;51.880;-0.518;2024-03-08T09:21:34;7.03;;;5.15;;
39434;SDS011;66825;51.880;-0.518;2024-03-08T09:24:02;7.03;;;5.68;;
39434;SDS011;66825;51.880;-0.518;2024-03-08T09:26:28;6.63;;;5.30;;
39434;SDS011;66825;51.880;-0.518;2024-03-08T09:28:53;7.55;;;5.60;;
39434;SDS011;66825;51.880;-0.518;2024-03-08T09:31:22;7.75;;;6.13;;
39434;SDS011;66825;51.880;-0.518;2024-03-08T09:33:47;8.18;;;6.60;;
39434;SDS011;66825;51.880;-0.518;2024-03-08T09:36:13;11.85;;;7.53;;
39434;SDS011;66825;51.880;-0.518;2024-03-08T09:38:39;10.55;;;6.93;;
39434;SDS011;66825;51.880;-0.518;2024-03-08T09:41:05;10.15;;;7.00;;
39434;SDS011;66825;51.880;-0.518;2024-03-08T09:43:30;15.23;;;8.80;;
39434;SDS011;66825;51.880;-0.518;2024-03-08T09:45:56;14.25;;;8.15;;
39434;SDS011;66825;51.880;-0.518;2024-03-08T09:48:22;16.77;;;8.90;;
39434;SDS011;66825;51.880;-0.518;2024-03-08T09:50:48;11.05;;;7.78;;
39434;SDS011;66825;51.880;-0.518;2024-03-08T09:53:14;13.02;;;7.80;;
39434;SDS011;66825;51.880;-0.518;2024-03-08T09:55:41;11.63;;;7.88;;
39434;SDS011;66825;51.880;-0.518;2024-03-08T09:58:13;11.02;;;7.53;;
39434;SDS011;66825;51.880;-0.518;2024-03-08T10:00:58;14.32;;;8.40;;
39434;SDS011;66825;51.880;-0.518;2024-03-08T10:03:23;16.45;;;9.25;;
39434;SDS011;66825;51.880;-0.518;2024-03-08T10:05:52;18.85;;;8.90;;
39434;SDS011;66825;51.880;-0.518;2024-03-08T10:08:17;17.38;;;8.93;;
39434;SDS011;66825;51.880;-0.518;2024-03-08T10:10:42;15.95;;;8.05;;
39434;SDS011;66825;51.880;-0.518;2024-03-08T10:13:08;13.18;;;8.18;;
39434;SDS011;66825;51.880;-0.518;2024-03-08T10:15:35;16.17;;;8.63;;
39434;SDS011;66825;51.880;-0.518;2024-03-08T10:18:01;14.45;;;8.77;;
39434;SDS011;66825;51.880;-0.518;2024-03-08T10:20:27;17.40;;;8.57;;
39434;SDS011;66825;51.880;-0.518;2024-03-08T10:22:59;15.25;;;8.88;;
39434;SDS011;66825;51.880;-0.518;2024-03-08T10:25:25;14.90;;;8.50;;
39434;SDS011;66825;51.880;-0.518;2024-03-08T10:27:51;14.20;;;7.93;;
39434;SDS011;66825;51.880;-0.518;2024-03-08T10:30:17;13.60;;;8.13;;
39434;SDS011;66825;51.880;-0.518;2024-03-08T10:32:46;12.93;;;7.68;;
39434;SDS011;66825;51.880;-0.518;2024-03-08T10:35:12;13.02;;;8.18;;
39434;SDS011;66825;51.880;-0.518;2024-03-08T10:37:45;17.20;;;8.35;;
39434;SDS011;66825;51.880;-0.518;2024-03-08T10:40:18;12.25;;;7.90;;
39434;SDS011;66825;51.880;-0.518;2024-03-08T10:45:35;31.92;;;12.10;;
39434;SDS011;66825;51.880;-0.518;2024-03-08T10:51:03;14.80;;;9.23;;
39434;SDS011;66825;51.880;-0.518;2024-03-08T10:53:30;21.48;;;9.88;;
39434;SDS011;66825;51.880;-0.518;2024-03-08T10:55:58;29.80;;;12.07;;
39434;SDS011;66825;51.880;-0.518;2024-03-08T10:58:24;25.20;;;11.88;;
39434;SDS011;66825;51.880;-0.518;2024-03-08T11:00:55;18.23;;;9.82;;
39434;SDS011;66825;51.880;-0.518;2024-03-08T11:08:43;15.23;;;9.15;;
39434;SDS011;66825;51.880;-0.518;2024-03-08T11:11:25;15.55;;;9.05;;
39434;SDS011;66825;51.880;-0.518;2024-03-08T11:13:59;12.55;;;8.35;;
39434;SDS011;66825;51.880;-0.518;2024-03-08T11:18:59;31.13;;;12.00;;
39434;SDS011;66825;51.880;-0.518;2024-03-08T11:21:32;21.63;;;11.93;;
39434;SDS011;66825;51.880;-0.518;2024-03-08T11:24:22;23.50;;;11.93;;
39434;SDS011;66825;51.880;-0.518;2024-03-08T11:26:48;18.02;;;10.27;;
39434;SDS011;66825;51.880;-0.518;2024-03-08T11:32:16;17.80;;;10.55;;
39434;SDS011;66825;51.880;-0.518;2024-03-08T11:34:46;21.35;;;10.43;;
39434;SDS011;66825;51.880;-0.518;2024-03-08T11:37:15;20.55;;;10.65;;
39434;SDS011;66825;51.880;-0.518;2024-03-08T11:39:53;16.73;;;10.68;;
39434;SDS011;66825;51.880;-0.518;2024-03-08T11:42:24;23.92;;;11.07;;
39434;SDS011;66825;51.880;-0.518;2024-03-08T11:44:53;20.33;;;11.25;;
39434;SDS011;66825;51.880;-0.518;2024-03-08T11:47:20;23.30;;;14.05;;
39434;SDS011;66825;51.880;-0.518;2024-03-08T11:49:46;32.47;;;16.42;;
39434;SDS011;66825;51.880;-0.518;2024-03-08T11:52:13;25.25;;;19.15;;
39434;SDS011;66825;51.880;-0.518;2024-03-08T11:54:51;26.85;;;18.50;;
39434;SDS011;66825;51.880;-0.518;2024-03-08T11:57:22;23.50;;;16.90;;
39434;SDS011;66825;51.880;-0.518;2024-03-08T11:59:49;23.70;;;15.85;;
39434;SDS011;66825;51.880;-0.518;2024-03-08T12:02:16;31.40;;;15.73;;
39434;SDS011;66825;51.880;-0.518;2024-03-08T12:04:41;22.13;;;14.98;;
39434;SDS011;66825;51.880;-0.518;2024-03-08T12:07:09;33.58;;;15.48;;
39434;SDS011;66825;51.880;-0.518;2024-03-08T12:09:37;31.48;;;15.40;;
39434;SDS011;66825;51.880;-0.518;2024-03-08T12:12:03;19.98;;;13.40;;
39434;SDS011;66825;51.880;-0.518;2024-03-08T12:14:30;22.38;;;13.73;;
39434;SDS011;66825;51.880;-0.518;2024-03-08T12:16:57;20.25;;;11.95;;
39434;SDS011;66825;51.880;-0.518;2024-03-08T12:19:22;21.45;;;12.80;;
39434;SDS011;66825;51.880;-0.518;2024-03-08T12:21:48;15.70;;;11.68;;
39434;SDS011;66825;51.880;-0.518;2024-03-08T12:24:15;17.50;;;11.65;;
39434;SDS011;66825;51.880;-0.518;2024-03-08T12:26:44;19.02;;;11.40;;
39434;SDS011;66825;51.880;-0.518;2024-03-08T12:29:17;17.88;;;11.35;;
39434;SDS011;66825;51.880;-0.518;2024-03-08T12:31:45;14.68;;;10.35;;
39434;SDS011;66825;51.880;-0.518;2024-03-08T12:34:23;16.38;;;11.05;;
39434;SDS011;66825;51.880;-0.518;2024-03-08T12:36:49;17.17;;;10.75;;
39434;SDS011;66825;51.880;-0.518;2024-03-08T12:39:19;16.40;;;9.65;;
39434;SDS011;66825;51.880;-0.518;2024-03-08T12:41:51;17.80;;;10.70;;
39434;SDS011;66825;51.880;-0.518;2024-03-08T12:44:18;15.18;;;9.82;;
39434;SDS011;66825;51.880;-0.518;2024-03-08T12:46:44;15.32;;;10.55;;
39434;SDS011;66825;51.880;-0.518;2024-03-08T12:49:10;20.63;;;11.35;;
39434;SDS011;66825;51.880;-0.518;2024-03-08T12:51:38;21.05;;;11.38;;
39434;SDS011;66825;51.880;-0.518;2024-03-08T12:54:04;18.92;;;10.77;;
39434;SDS011;66825;51.880;-0.518;2024-03-08T12:56:32;20.48;;;10.77;;
39434;SDS011;66825;51.880;-0.518;2024-03-08T12:59:00;17.42;;;9.43;;
39434;SDS011;66825;51.880;-0.518;2024-03-08T13:01:26;18.35;;;10.02;;
39434;SDS011;66825;51.880;-0.518;2024-03-08T13:03:52;21.95;;;10.02;;
39434;SDS011;66825;51.880;-0.518;2024-03-08T13:06:21;16.20;;;9.70;;
39434;SDS011;66825;51.880;-0.518;2024-03-08T13:08:52;15.57;;;9.70;;
39434;SDS011;66825;51.880;-0.518;2024-03-08T13:11:19;14.82;;;8.80;;
39434;SDS011;66825;51.880;-0.518;2024-03-08T13:13:44;15.80;;;9.27;;
39434;SDS011;66825;51.880;-0.518;2024-03-08T13:16:10;14.02;;;8.40;;
39434;SDS011;66825;51.880;-0.518;2024-03-08T13:18:40;12.15;;;8.02;;
39434;SDS011;66825;51.880;-0.518;2024-03-08T13:21:07;13.65;;;8.63;;
39434;SDS011;66825;51.880;-0.518;2024-03-08T13:23:34;16.25;;;9.18;;
39434;SDS011;66825;51.880;-0.518;2024-03-08T13:26:09;14.20;;;8.60;;
39434;SDS011;66825;51.880;-0.518;2024-03-08T13:28:48;13.02;;;8.65;;
39434;SDS011;66825;51.880;-0.518;2024-03-08T13:31:19;16.10;;;8.52;;
39434;SDS011;66825;51.880;-0.518;2024-03-08T13:33:45;20.02;;;9.85;;
39434;SDS011;66825;51.880;-0.518;2024-03-08T13:36:12;15.38;;;9.30;;
39434;SDS011;66825;51.880;-0.518;2024-03-08T13:38:44;14.00;;;8.13;;
39434;SDS011;66825;51.880;-0.518;2024-03-08T13:41:11;16.05;;;8.80;;
39434;SDS011;66825;51.880;-0.518;2024-03-08T13:43:46;10.40;;;8.43;;
39434;SDS011;66825;51.880;-0.518;2024-03-08T13:46:15;14.20;;;8.43;;
39434;SDS011;66825;51.880;-0.518;2024-03-08T13:48:41;14.48;;;8.43;;
39434;SDS011;66825;51.880;-0.518;2024-03-08T13:51:08;12.05;;;8.38;;
39434;SDS011;66825;51.880;-0.518;2024-03-08T13:53:36;14.43;;;7.88;;
39434;SDS011;66825;51.880;-0.518;2024-03-08T13:56:02;15.05;;;8.02;;
39434;SDS011;66825;51.880;-0.518;2024-03-08T13:58:28;14.18;;;7.68;;
39434;SDS011;66825;51.880;-0.518;2024-03-08T14:00:53;12.15;;;7.18;;
39434;SDS011;66825;51.880;-0.518;2024-03-08T14:03:20;12.57;;;7.95;;
39434;SDS011;66825;51.880;-0.518;2024-03-08T14:05:46;12.48;;;7.90;;
39434;SDS011;66825;51.880;-0.518;2024-03-08T14:08:12;14.27;;;7.10;;
39434;SDS011;66825;51.880;-0.518;2024-03-08T14:10:37;12.98;;;7.43;;
39434;SDS011;66825;51.880;-0.518;2024-03-08T14:13:03;15.00;;;7.25;;
39434;SDS011;66825;51.880;-0.518;2024-03-08T14:15:32;9.50;;;7.25;;
39434;SDS011;66825;51.880;-0.518;2024-03-08T14:17:59;15.98;;;7.78;;
39434;SDS011;66825;51.880;-0.518;2024-03-08T14:20:26;13.65;;;7.50;;
39434;SDS011;66825;51.880;-0.518;2024-03-08T14:22:52;11.77;;;7.20;;
39434;SDS011;66825;51.880;-0.518;2024-03-08T14:25:19;12.50;;;7.28;;
39434;SDS011;66825;51.880;-0.518;2024-03-08T14:27:48;12.07;;;6.85;;
39434;SDS011;66825;51.880;-0.518;2024-03-08T14:30:15;13.07;;;6.60;;
39434;SDS011;66825;51.880;-0.518;2024-03-08T14:32:57;9.63;;;6.68;;
39434;SDS011;66825;51.880;-0.518;2024-03-08T14:35:26;19.77;;;8.40;;
39434;SDS011;66825;51.880;-0.518;2024-03-08T14:37:55;19.77;;;9.50;;
39434;SDS011;66825;51.880;-0.518;2024-03-08T14:40:22;16.50;;;7.72;;
39434;SDS011;66825;51.880;-0.518;2024-03-08T14:42:49;14.25;;;7.60;;
39434;SDS011;66825;51.880;-0.518;2024-03-08T14:45:15;12.55;;;7.00;;
39434;SDS011;66825;51.880;-0.518;2024-03-08T14:47:41;11.65;;;7.00;;